createdAt,value
2022-08-11T00:01:27.863Z,2.97
2022-08-11T00:04:02.592Z,2.67
2022-08-11T00:06:31.560Z,3.13
2022-08-11T00:09:00.654Z,2.92
2022-08-11T00:11:58.772Z,2.92
2022-08-11T00:14:37.307Z,2.75
2022-08-11T00:17:14.769Z,2.75
2022-08-11T00:20:15.023Z,2.65
2022-08-11T00:22:33.614Z,2.83
2022-08-11T00:25:10.278Z,2.67
2022-08-11T00:27:39.508Z,3.05
2022-08-11T00:30:09.050Z,2.90
2022-08-11T00:32:39.158Z,2.90
2022-08-11T00:35:56.230Z,2.53
2022-08-11T00:37:59.571Z,3.10
2022-08-11T00:40:36.839Z,2.67
2022-08-11T00:43:40.201Z,3.13
2022-08-11T00:46:25.228Z,3.15
2022-08-11T00:49:34.858Z,3.00
2022-08-11T00:52:17.428Z,2.70
2022-08-11T00:55:10.259Z,3.08
2022-08-11T00:57:56.255Z,3.00
2022-08-11T01:00:27.306Z,3.45
2022-08-11T01:03:32.570Z,2.75
2022-08-11T01:06:30.429Z,3.35
2022-08-11T01:09:32.286Z,3.05
2022-08-11T01:12:29.949Z,2.85
2022-08-11T01:15:23.169Z,2.80
2022-08-11T01:20:57.527Z,2.95
2022-08-11T01:23:44.116Z,2.60
2022-08-11T01:27:00.160Z,3.15
2022-08-11T01:29:58.246Z,3.20
2022-08-11T01:32:53.117Z,2.80
2022-08-11T01:35:35.044Z,3.00
2022-08-11T01:38:12.958Z,3.40
2022-08-11T01:41:04.588Z,2.78
2022-08-11T01:44:17.615Z,3.10
2022-08-11T01:46:52.780Z,3.45
2022-08-11T01:50:06.409Z,3.22
2022-08-11T01:52:34.598Z,3.20
2022-08-11T01:55:32.295Z,2.88
2022-08-11T01:58:20.560Z,3.33
2022-08-11T02:01:34.908Z,3.20
2022-08-11T02:04:03.324Z,3.13
2022-08-11T02:06:56.369Z,3.00
2022-08-11T02:09:51.759Z,2.90
2022-08-11T02:12:52.685Z,3.30
2022-08-11T02:15:38.302Z,3.50
2022-08-11T02:18:13.647Z,3.63
2022-08-11T02:21:26.356Z,2.90
2022-08-11T02:24:05.344Z,3.30
2022-08-11T02:26:44.447Z,3.35
2022-08-11T02:29:33.810Z,2.85
2022-08-11T02:32:39.344Z,3.10
2022-08-11T02:35:42.777Z,3.60
2022-08-11T02:38:28.106Z,3.80
2022-08-11T02:41:41.048Z,3.22
2022-08-11T02:44:44.987Z,3.60
2022-08-11T02:48:09.779Z,3.45
2022-08-11T02:51:07.528Z,3.22
2022-08-11T02:53:50.986Z,3.50
2022-08-11T02:56:37.552Z,3.38
2022-08-11T02:59:49.961Z,3.47
2022-08-11T03:02:24.665Z,3.53
2022-08-11T03:05:17.691Z,3.83
2022-08-11T03:08:06.369Z,3.80
2022-08-11T03:11:15.392Z,3.83
2022-08-11T03:14:40.047Z,3.47
2022-08-11T03:17:09.999Z,3.92
2022-08-11T03:20:05.986Z,3.75
2022-08-11T03:22:58.149Z,3.83
2022-08-11T03:25:47.874Z,4.00
2022-08-11T03:28:35.276Z,3.88
2022-08-11T03:31:08.789Z,4.55
2022-08-11T03:34:06.765Z,3.65
2022-08-11T03:37:17.347Z,3.90
2022-08-11T03:39:59.325Z,3.83
2022-08-11T03:42:35.301Z,4.13
2022-08-11T03:45:40.733Z,3.78
2022-08-11T03:48:23.029Z,4.18
2022-08-11T03:50:55.854Z,4.07
2022-08-11T03:56:57.346Z,3.50
2022-08-11T03:59:45.693Z,3.95
2022-08-11T04:02:21.430Z,4.30
2022-08-11T04:05:04.954Z,4.07
2022-08-11T04:07:53.308Z,4.45
2022-08-11T04:10:33.068Z,3.83
2022-08-11T04:13:28.244Z,4.15
2022-08-11T04:16:16.181Z,3.80
2022-08-11T04:19:11.819Z,3.97
2022-08-11T04:22:13.000Z,3.75
2022-08-11T04:24:50.594Z,3.95
2022-08-11T04:27:44.147Z,4.68
2022-08-11T04:30:32.688Z,4.18
2022-08-11T04:32:59.910Z,4.10
2022-08-11T04:36:04.417Z,4.28
2022-08-11T04:38:50.289Z,4.50
2022-08-11T04:41:26.780Z,4.00
2022-08-11T04:44:15.599Z,4.57
2022-08-11T04:47:04.442Z,4.50
2022-08-11T04:50:42.750Z,4.57
2022-08-11T04:54:14.279Z,4.28
2022-08-11T04:57:04.978Z,4.63
2022-08-11T05:00:17.628Z,4.20
2022-08-11T05:03:11.854Z,4.90
2022-08-11T05:05:57.200Z,4.82
2022-08-11T05:08:57.851Z,4.00
2022-08-11T05:11:36.918Z,5.03
2022-08-11T05:14:31.439Z,4.70
2022-08-11T05:17:56.374Z,4.20
2022-08-11T05:20:46.258Z,3.70
2022-08-11T05:23:33.651Z,4.30
2022-08-11T05:26:46.942Z,4.55
2022-08-11T05:30:04.751Z,3.50
2022-08-11T05:33:02.286Z,3.60
2022-08-11T05:36:00.217Z,3.40
2022-08-11T05:38:52.165Z,3.75
2022-08-11T05:41:44.675Z,3.90
2022-08-11T05:44:37.749Z,3.47
2022-08-11T05:47:23.601Z,3.13
2022-08-11T05:50:13.810Z,3.63
2022-08-11T05:53:09.245Z,3.47
2022-08-11T05:56:03.469Z,3.50
2022-08-11T05:58:41.726Z,3.90
2022-08-11T06:01:10.791Z,3.00
2022-08-11T06:03:58.910Z,3.90
2022-08-11T06:06:32.491Z,3.38
2022-08-11T06:09:00.867Z,3.53
2022-08-11T06:11:44.052Z,3.63
2022-08-11T06:14:15.567Z,3.28
2022-08-11T06:16:43.362Z,3.30
2022-08-11T06:19:11.107Z,3.55
2022-08-11T06:21:38.510Z,3.28
2022-08-11T06:24:12.332Z,3.72
2022-08-11T06:27:01.703Z,3.60
2022-08-11T06:29:37.794Z,3.80
2022-08-11T06:32:15.607Z,4.15
2022-08-11T06:34:48.306Z,4.00
2022-08-11T06:37:41.080Z,3.40
2022-08-11T06:40:31.300Z,3.95
2022-08-11T06:43:05.113Z,4.15
2022-08-11T06:45:57.294Z,4.05
2022-08-11T06:48:25.217Z,3.63
2022-08-11T06:51:12.840Z,4.05
2022-08-11T06:54:03.721Z,3.80
2022-08-11T06:57:28.400Z,3.47
2022-08-11T07:00:10.634Z,4.13
2022-08-11T07:02:46.559Z,4.00
2022-08-11T07:05:27.668Z,3.80
2022-08-11T07:08:34.347Z,3.67
2022-08-11T07:11:58.477Z,4.03
2022-08-11T07:14:46.417Z,3.60
2022-08-11T07:17:31.887Z,3.17
2022-08-11T07:20:21.144Z,3.50
2022-08-11T07:23:16.778Z,3.22
2022-08-11T07:26:05.657Z,3.63
2022-08-11T07:28:55.455Z,3.67
2022-08-11T07:31:45.711Z,2.67
2022-08-11T07:34:21.956Z,2.90
2022-08-11T07:36:55.345Z,3.22
2022-08-11T07:39:28.959Z,3.10
2022-08-11T07:41:58.765Z,3.28
2022-08-11T07:44:34.455Z,3.20
2022-08-11T07:47:20.980Z,3.20
2022-08-11T07:50:09.150Z,3.28
2022-08-11T07:52:38.418Z,2.88
2022-08-11T07:55:18.090Z,3.17
2022-08-11T07:58:16.641Z,2.85
2022-08-11T08:01:21.585Z,3.20
2022-08-11T08:04:16.329Z,3.28
2022-08-11T08:07:02.882Z,3.17
2022-08-11T08:09:53.366Z,3.33
2022-08-11T08:12:43.561Z,2.85
2022-08-11T08:15:31.817Z,2.92
2022-08-11T08:18:20.743Z,2.80
2022-08-11T08:20:50.297Z,3.10
2022-08-11T08:23:33.531Z,2.90
2022-08-11T08:26:04.549Z,2.72
2022-08-11T08:28:33.594Z,2.80
2022-08-11T08:31:01.169Z,2.70
2022-08-11T08:33:30.672Z,3.00
2022-08-11T08:36:14.008Z,2.95
2022-08-11T08:38:54.100Z,3.00
2022-08-11T08:41:27.641Z,2.95
2022-08-11T08:44:20.678Z,3.15
2022-08-11T08:46:50.497Z,3.25
2022-08-11T08:49:22.739Z,3.17
2022-08-11T08:52:00.949Z,3.08
2022-08-11T08:54:46.093Z,2.28
2022-08-11T08:57:15.442Z,2.97
2022-08-11T08:59:48.512Z,2.50
2022-08-11T09:02:34.859Z,2.45
2022-08-11T09:05:04.707Z,2.65
2022-08-11T09:07:39.595Z,2.70
2022-08-11T09:10:09.883Z,2.42
2022-08-11T09:12:40.586Z,2.60
2022-08-11T09:15:10.298Z,2.65
2022-08-11T09:17:41.799Z,2.53
2022-08-11T09:20:11.668Z,2.40
2022-08-11T09:26:11.047Z,2.20
2022-08-11T09:28:38.745Z,1.98
2022-08-11T09:31:07.112Z,2.10
2022-08-11T09:33:36.276Z,2.25
2022-08-11T09:36:24.247Z,1.80
2022-08-11T09:39:11.815Z,1.88
2022-08-11T09:42:00.898Z,2.45
2022-08-11T09:44:48.864Z,1.80
2022-08-11T09:47:30.456Z,1.95
2022-08-11T09:50:02.512Z,2.30
2022-08-11T09:52:32.646Z,1.88
2022-08-11T09:55:11.119Z,1.60
2022-08-11T09:58:05.370Z,1.92
2022-08-11T10:00:37.525Z,1.95
2022-08-11T10:03:14.123Z,1.90
2022-08-11T10:06:08.223Z,2.30
2022-08-11T10:08:38.010Z,2.00
2022-08-11T10:11:09.479Z,2.05
2022-08-11T10:14:33.682Z,1.70
2022-08-11T10:16:49.382Z,1.15
2022-08-11T10:19:19.365Z,1.20
2022-08-11T10:22:11.998Z,1.30
2022-08-11T10:25:01.884Z,1.50
2022-08-11T10:28:09.040Z,2.05
2022-08-11T10:30:34.670Z,1.63
2022-08-11T10:33:36.880Z,1.60
2022-08-11T10:36:16.335Z,1.80
2022-08-11T10:38:46.922Z,1.98
2022-08-11T10:41:33.078Z,1.85
2022-08-11T10:44:03.080Z,1.65
2022-08-11T10:46:50.165Z,1.63
2022-08-11T10:49:18.825Z,1.67
2022-08-11T10:52:07.416Z,1.60
2022-08-11T10:54:54.581Z,1.77
2022-08-11T10:57:41.627Z,1.70
2022-08-11T11:00:15.154Z,1.88
2022-08-11T11:02:44.410Z,1.88
2022-08-11T11:05:32.464Z,1.60
2022-08-11T11:08:33.448Z,1.58
2022-08-11T11:11:02.655Z,1.42
2022-08-11T11:13:59.765Z,1.67
2022-08-11T11:16:50.274Z,1.75
2022-08-11T11:19:29.976Z,2.08
2022-08-11T11:22:24.991Z,1.92
2022-08-11T11:25:28.970Z,1.70
2022-08-11T11:28:27.028Z,1.80
2022-08-11T11:31:31.663Z,1.73
2022-08-11T11:34:31.174Z,1.75
2022-08-11T11:37:02.109Z,1.80
2022-08-11T11:39:44.175Z,1.92
2022-08-11T11:42:12.282Z,1.55
2022-08-11T11:44:45.879Z,1.88
2022-08-11T11:47:13.756Z,1.83
2022-08-11T11:49:49.668Z,1.80
2022-08-11T11:52:19.684Z,2.00
2022-08-11T11:54:51.448Z,2.00
2022-08-11T11:57:39.033Z,2.10
2022-08-11T12:00:33.266Z,1.63
2022-08-11T12:03:05.252Z,1.75
2022-08-11T12:05:34.704Z,1.77
2022-08-11T12:08:15.264Z,1.90
2022-08-11T12:10:47.934Z,1.95
2022-08-11T12:13:37.176Z,1.65
2022-08-11T12:16:34.770Z,1.60
2022-08-11T12:18:55.257Z,1.73
2022-08-11T12:21:24.432Z,1.83
2022-08-11T12:24:10.806Z,1.58
2022-08-11T12:27:16.113Z,1.60
2022-08-11T12:29:55.367Z,1.63
2022-08-11T12:32:26.029Z,1.60
2022-08-11T12:34:56.864Z,1.60
2022-08-11T12:37:44.589Z,1.60
2022-08-11T12:40:42.802Z,1.48
2022-08-11T12:43:46.397Z,1.67
2022-08-11T12:46:42.923Z,1.55
2022-08-11T12:49:43.250Z,1.50
2022-08-11T12:52:19.205Z,1.60
2022-08-11T12:55:07.545Z,1.42
2022-08-11T12:58:01.104Z,1.30
2022-08-11T13:00:51.596Z,1.70
2022-08-11T13:03:41.180Z,1.70
2022-08-11T13:06:08.885Z,1.60
2022-08-11T13:08:38.777Z,1.52
2022-08-11T13:11:25.760Z,1.63
2022-08-11T13:14:15.185Z,1.55
2022-08-11T13:17:02.567Z,1.27
2022-08-11T13:19:31.003Z,1.25
2022-08-11T13:21:58.684Z,1.30
2022-08-11T13:24:25.966Z,1.73
2022-08-11T13:26:53.157Z,1.50
2022-08-11T13:29:22.282Z,1.20
2022-08-11T13:31:50.422Z,1.77
2022-08-11T13:34:18.653Z,1.25
2022-08-11T13:36:50.082Z,1.23
2022-08-11T13:39:19.300Z,1.65
2022-08-11T13:41:48.585Z,1.30
2022-08-11T13:44:23.237Z,1.20
2022-08-11T13:47:19.207Z,1.40
2022-08-11T13:49:47.919Z,1.10
2022-08-11T13:52:16.600Z,1.20
2022-08-11T13:54:46.357Z,1.42
2022-08-11T13:58:08.177Z,1.30
2022-08-11T14:00:13.059Z,1.15
2022-08-11T14:02:59.976Z,1.35
2022-08-11T14:05:37.476Z,1.42
2022-08-11T14:08:32.477Z,1.20
2022-08-11T14:12:23.875Z,1.30
2022-08-11T14:14:09.539Z,1.35
2022-08-11T14:16:42.981Z,1.30
2022-08-11T14:19:14.172Z,1.35
2022-08-11T14:22:07.232Z,1.30
2022-08-11T14:24:43.312Z,1.50
2022-08-11T14:28:29.785Z,1.30
2022-08-11T14:30:02.373Z,1.35
2022-08-11T14:32:29.677Z,1.10
2022-08-11T14:34:58.784Z,1.40
2022-08-11T14:37:27.777Z,1.17
2022-08-11T14:40:03.182Z,1.42
2022-08-11T14:42:49.975Z,1.73
2022-08-11T14:45:58.206Z,1.30
2022-08-11T14:48:23.805Z,1.60
2022-08-11T14:50:51.377Z,1.33
2022-08-11T14:53:22.093Z,1.40
2022-08-11T14:56:08.497Z,1.23
2022-08-11T14:58:39.565Z,1.50
2022-08-11T15:01:27.097Z,1.23
2022-08-11T15:04:33.987Z,1.38
2022-08-11T15:06:43.153Z,1.20
2022-08-11T15:09:10.355Z,1.50
2022-08-11T15:11:56.190Z,1.60
2022-08-11T15:14:42.162Z,1.40
2022-08-11T15:17:10.283Z,1.20
2022-08-11T15:20:00.228Z,1.00
2022-08-11T15:22:46.818Z,1.20
2022-08-11T15:25:14.459Z,1.33
2022-08-11T15:28:02.757Z,1.25
2022-08-11T15:30:48.830Z,1.35
2022-08-11T15:33:36.824Z,1.20
2022-08-11T15:36:26.240Z,1.38
2022-08-11T15:39:08.264Z,1.10
2022-08-11T15:42:27.397Z,1.20
2022-08-11T15:45:34.435Z,1.27
2022-08-11T15:48:08.338Z,1.10
2022-08-11T15:50:41.565Z,1.08
2022-08-11T15:53:39.266Z,1.63
2022-08-11T15:56:12.150Z,1.30
2022-08-11T15:59:40.990Z,1.38
2022-08-11T16:02:10.007Z,1.50
2022-08-11T16:04:38.251Z,1.30
2022-08-11T16:07:11.856Z,1.08
2022-08-11T16:09:51.758Z,1.08
2022-08-11T16:12:23.470Z,1.05
2022-08-11T16:15:14.403Z,1.40
2022-08-11T16:17:59.243Z,1.20
2022-08-11T16:20:29.362Z,1.30
2022-08-11T16:23:02.560Z,1.08
2022-08-11T16:27:03.233Z,1.35
2022-08-11T16:28:23.259Z,1.48
2022-08-11T16:30:52.037Z,1.30
2022-08-11T16:33:50.278Z,1.40
2022-08-11T16:36:44.836Z,1.35
2022-08-11T16:39:18.615Z,1.55
2022-08-11T16:43:04.584Z,1.25
2022-08-11T16:45:22.294Z,1.60
2022-08-11T16:48:02.324Z,1.35
2022-08-11T16:50:30.947Z,1.50
2022-08-11T16:52:58.032Z,1.40
2022-08-11T16:55:52.112Z,1.33
2022-08-11T16:58:33.372Z,1.63
2022-08-11T17:01:02.753Z,1.35
2022-08-11T17:03:52.143Z,1.35
2022-08-11T17:06:38.859Z,1.75
2022-08-11T17:09:27.473Z,1.98
2022-08-11T17:12:16.785Z,2.13
2022-08-11T17:14:52.011Z,1.60
2022-08-11T17:17:27.646Z,1.60
2022-08-11T17:20:38.245Z,1.52
2022-08-11T17:23:13.328Z,1.55
2022-08-11T17:26:03.502Z,1.50
2022-08-11T17:28:34.287Z,1.40
2022-08-11T17:31:23.412Z,1.70
2022-08-11T17:34:11.340Z,1.42
2022-08-11T17:36:44.504Z,1.77
2022-08-11T17:39:16.712Z,1.40
2022-08-11T17:42:03.900Z,1.50
2022-08-11T17:44:51.823Z,1.67
2022-08-11T17:47:39.587Z,1.35
2022-08-11T17:50:16.681Z,1.33
2022-08-11T17:53:07.497Z,1.10
2022-08-11T17:55:55.956Z,1.85
2022-08-11T17:58:52.628Z,1.48
2022-08-11T18:01:21.160Z,1.40
2022-08-11T18:03:57.430Z,1.42
2022-08-11T18:06:34.077Z,1.45
2022-08-11T18:09:26.127Z,2.08
2022-08-11T18:12:13.739Z,1.70
2022-08-11T18:15:04.254Z,1.77
2022-08-11T18:17:51.078Z,1.48
2022-08-11T18:20:40.569Z,1.40
2022-08-11T18:23:40.697Z,1.77
2022-08-11T18:26:36.490Z,1.42
2022-08-11T18:29:25.048Z,1.23
2022-08-11T18:32:12.559Z,1.80
2022-08-11T18:35:10.734Z,1.58
2022-08-11T18:38:02.487Z,1.60
2022-08-11T18:40:50.999Z,2.40
2022-08-11T18:43:39.578Z,1.77
2022-08-11T18:46:27.698Z,1.92
2022-08-11T18:49:27.265Z,1.60
2022-08-11T18:52:35.153Z,1.80
2022-08-11T18:55:23.223Z,1.60
2022-08-11T18:58:10.271Z,1.40
2022-08-11T19:00:58.437Z,1.20
2022-08-11T19:03:48.653Z,1.60
2022-08-11T19:06:40.929Z,1.60
2022-08-11T19:09:31.762Z,1.50
2022-08-11T19:12:20.236Z,1.42
2022-08-11T19:15:09.262Z,1.40
2022-08-11T19:18:01.607Z,1.67
2022-08-11T19:20:49.672Z,1.60
2022-08-11T19:23:47.469Z,1.48
2022-08-11T19:26:43.511Z,1.23
2022-08-11T19:30:05.003Z,1.83
2022-08-11T19:32:38.822Z,1.40
2022-08-11T19:35:25.348Z,1.20
2022-08-11T19:38:11.937Z,1.23
2022-08-11T19:40:58.862Z,1.55
2022-08-11T19:43:48.119Z,1.40
2022-08-11T19:46:36.495Z,1.38
2022-08-11T19:49:23.116Z,1.45
2022-08-11T19:52:09.818Z,1.50
2022-08-11T19:54:57.140Z,1.60
2022-08-11T19:57:43.683Z,1.50
2022-08-11T20:00:36.403Z,1.80
2022-08-11T20:03:25.459Z,1.73
2022-08-11T20:06:12.457Z,1.77
2022-08-11T20:09:01.392Z,1.40
2022-08-11T20:11:59.665Z,2.13
2022-08-11T20:14:48.503Z,1.88
2022-08-11T20:17:35.183Z,1.85
2022-08-11T20:20:25.950Z,1.70
2022-08-11T20:23:15.695Z,1.48
2022-08-11T20:26:27.616Z,1.55
2022-08-11T20:29:10.574Z,1.70
2022-08-11T20:31:57.067Z,1.80
2022-08-11T20:34:43.706Z,1.30
2022-08-11T20:37:30.601Z,1.50
2022-08-11T20:40:23.774Z,1.42
2022-08-11T20:44:05.106Z,1.65
2022-08-11T20:46:16.725Z,1.60
2022-08-11T20:49:05.289Z,1.30
2022-08-11T20:51:57.057Z,1.60
2022-08-11T20:54:53.763Z,1.80
2022-08-11T20:57:59.431Z,1.40
2022-08-11T21:00:47.678Z,1.60
2022-08-11T21:03:44.880Z,1.40
2022-08-11T21:06:43.146Z,1.52
2022-08-11T21:09:58.446Z,1.58
2022-08-11T21:12:44.211Z,1.45
2022-08-11T21:15:47.005Z,1.30
2022-08-11T21:18:36.212Z,1.70
2022-08-11T21:21:28.241Z,1.58
2022-08-11T21:24:16.166Z,1.40
2022-08-11T21:27:05.502Z,1.85
2022-08-11T21:29:54.770Z,1.55
2022-08-11T21:32:42.702Z,1.73
2022-08-11T21:35:29.766Z,1.60
2022-08-11T21:38:17.086Z,1.90
2022-08-11T21:41:05.395Z,1.63
2022-08-11T21:43:52.312Z,1.88
2022-08-11T21:46:50.061Z,2.13
2022-08-11T21:49:42.865Z,1.88
2022-08-11T21:52:28.980Z,1.67
2022-08-11T21:55:20.084Z,1.30
2022-08-11T21:58:12.727Z,1.33
2022-08-11T22:01:02.717Z,1.60
2022-08-11T22:03:53.476Z,1.70
2022-08-11T22:06:41.082Z,1.95
2022-08-11T22:09:32.862Z,1.88
2022-08-11T22:12:30.024Z,1.73
2022-08-11T22:15:29.370Z,1.80
2022-08-11T22:18:20.999Z,1.80
2022-08-11T22:22:02.555Z,2.03
2022-08-11T22:24:46.271Z,1.80
2022-08-11T22:27:32.376Z,1.85
2022-08-11T22:30:18.069Z,1.60
2022-08-11T22:33:06.905Z,1.50
2022-08-11T22:35:54.420Z,1.77
2022-08-11T22:38:41.354Z,1.73
2022-08-11T22:41:27.248Z,1.80
2022-08-11T22:44:12.771Z,1.58
2022-08-11T22:47:02.364Z,1.45
2022-08-11T22:49:57.580Z,1.67
2022-08-11T22:52:48.170Z,1.90
2022-08-11T22:55:34.739Z,1.70
2022-08-11T22:58:25.232Z,1.90
2022-08-11T23:01:13.158Z,1.88
2022-08-11T23:04:02.113Z,2.00
2022-08-11T23:06:53.596Z,1.88
2022-08-11T23:09:42.451Z,1.88
2022-08-11T23:12:35.859Z,2.10
2022-08-11T23:15:22.849Z,2.17
2022-08-11T23:18:09.682Z,2.20
2022-08-11T23:20:56.223Z,2.45
2022-08-11T23:23:45.660Z,1.73
2022-08-11T23:26:35.927Z,1.90
2022-08-11T23:29:22.712Z,2.05
2022-08-11T23:32:09.981Z,1.98
2022-08-11T23:35:40.550Z,2.10
2022-08-11T23:38:13.945Z,1.92
2022-08-11T23:40:59.451Z,2.30
2022-08-11T23:43:44.877Z,2.58
2022-08-11T23:46:30.421Z,2.65
2022-08-11T23:49:20.034Z,2.60
2022-08-11T23:52:07.201Z,1.95
2022-08-11T23:54:54.291Z,2.10
2022-08-11T23:57:54.400Z,2.22
